Latest Weather Observations for Latrobe Valley

IDV60801

Issued at 1:35 pm EST Sunday 21 September 2014 (issued every 30 minutes, with the page automatically refreshed every 10 minutes)

About weather observations | Map of weather stations | Latest weather observations for VIC | Other Formats
Station Details ID: 085280 Name: LATROBE VALLEY AIRPORT Lat: -38.21 Lon: 146.47 Height: 55.7 m
Data from the previous 72 hours. | See also: Recent months at Latrobe Valley
Date/Time
EST
Temp
°C
App
Temp
°C
Dew
Point
Rel
Hum
%
Delta-T
°C
Wind Press
QNH
hPa
Press
MSL
hPa
Rain
since 9 am
mm
Dir
 
Spd
km/h
Gust
km/h
Spd
kts
Gust
kts
21/01:30pm 15.9 12.3 8.4 61 3.8 W 17 26 9 14 1029.9 1030.0 0.0
21/01:00pm 15.5 11.4 8.0 61 3.7 W 19 26 10 14 1030.2 1030.3 0.0
21/12:30pm 15.6 12.6 9.3 66 3.3 W 15 22 8 12 1030.6 1030.7 0.0
21/12:00pm 14.4 10.3 7.9 65 3.2 SW 19 22 10 12 1031.1 1031.2 0.0
21/11:30am 14.3 11.3 7.6 64 3.3 WNW 13 15 7 8 1031.4 1031.5 0.0
21/11:00am 13.6 9.8 7.6 67 2.9 SW 17 20 9 11 1031.9 1031.9 0.0
21/10:30am 13.0 9.9 7.2 68 2.8 WSW 13 19 7 10 1032.0 1032.0 0.0
21/10:00am 12.6 10.0 7.7 72 2.4 W 11 17 6 9 1032.0 1032.0 0.0
21/09:30am 11.9 11.6 10.0 88 1.0 W 2 7 1 4 1032.0 1032.0 0.0
21/09:00am 10.2 9.5 10.2 100 0.0 W 4 7 2 4 1031.9 1031.9 0.2
21/08:30am 9.1 7.8 9.1 100 0.0 WNW 6 9 3 5 1031.5 1031.6 0.2
21/08:00am 7.8 6.9 7.8 100 0.0 SW 2 6 1 3 1031.5 1031.6 0.2
21/07:30am 6.0 4.7 6.0 100 0.0 WNW 2 6 1 3 1031.4 1031.5 0.2
21/07:00am 4.6 3.4 4.6 100 0.0 CALM 0 0 0 0 1031.3 1031.4 0.2
21/06:36am 4.0 1.5 4.0 100 0.0 SW 6 9 3 5 1031.1 1031.2 0.2
21/06:30am 3.8 2.1 3.8 100 0.0 SW 2 9 1 5 1031.0 1031.1 0.2
21/06:00am 2.6 1.0 2.5 99 0.0 CALM 0 0 0 0 1030.4 1030.5 0.2
21/05:45am 3.1 1.2 3.0 99 0.0 S 2 6 1 3 1030.3 1030.4 0.2
21/05:30am 3.8 2.4 3.7 99 0.0 CALM 0 0 0 0 1030.2 1030.3 0.2
21/05:00am 5.0 2.2 5.0 100 0.0 S 9 13 5 7 1030.0 1030.1 0.2
21/04:30am 4.9 2.4 4.8 99 0.0 S 7 9 4 5 1029.7 1029.8 0.2
21/04:00am 6.0 3.9 5.9 99 0.0 SSW 6 7 3 4 1029.6 1029.7 0.2
21/03:30am 6.5 4.0 6.5 100 0.0 SW 9 11 5 6 1029.6 1029.7 0.2
21/03:00am 6.1 3.5 6.1 100 0.0 SW 9 11 5 6 1029.5 1029.6 0.2
21/02:30am 6.3 3.7 6.3 100 0.0 SW 9 11 5 6 1029.5 1029.6 0.2
21/02:00am 5.9 3.2 5.8 99 0.0 SW 9 11 5 6 1029.6 1029.7 0.2
21/01:30am 5.4 2.6 5.3 99 0.0 WSW 9 11 5 6 1029.7 1029.8 0.2
21/01:00am 5.5 2.8 5.4 99 0.0 WSW 9 11 5 6 1029.9 1030.0 0.2
21/12:30am 6.1 3.5 6.0 99 0.0 WSW 9 11 5 6 1029.9 1030.0 0.2
21/12:00am 6.7 4.8 6.6 99 0.0 WSW 6 7 3 4 1029.8 1029.9 0.2
 
Date/Time
EST
Temp
°C
App
Temp
°C
Dew
Point
Rel
Hum
%
Delta-T
°C
Wind Press
QNH
hPa
Press
MSL
hPa
Rain
since 9 am
mm
Dir
 
Spd
km/h
Gust
km/h
Spd
kts
Gust
kts
20/11:30pm 6.0 3.4 5.9 99 0.0 WSW 9 11 5 6 1030.0 1030.1 0.2
20/11:00pm 7.0 5.1 6.9 99 0.0 W 6 7 3 4 1029.7 1029.8 0.2
20/10:30pm 6.8 4.7 6.7 99 0.0 WSW 7 11 4 6 1029.9 1030.0 0.2
20/10:00pm 6.8 3.6 6.7 99 0.0 W 13 15 7 8 1029.7 1029.8 0.2
20/09:30pm 6.8 3.5 6.5 98 0.1 W 13 15 7 8 1029.8 1029.9 0.2
20/09:00pm 7.5 4.8 7.2 98 0.1 WNW 11 13 6 7 1029.9 1030.0 0.2
20/08:30pm 7.8 4.4 7.5 98 0.1 W 15 17 8 9 1029.8 1029.9 0.2
20/08:00pm 8.0 5.7 7.4 96 0.3 W 9 11 5 6 1029.7 1029.8 0.2
20/07:30pm 8.3 5.3 7.5 95 0.4 WSW 13 13 7 7 1029.3 1029.4 0.2
20/07:00pm 10.4 6.5 8.5 88 0.9 SW 19 26 10 14 1028.9 1029.0 0.2
20/06:30pm 10.7 6.0 7.9 83 1.4 SW 22 32 12 17 1028.4 1028.5 0.2
20/06:00pm 11.6 7.1 8.5 81 1.5 SW 22 32 12 17 1028.1 1028.2 0.2
20/05:30pm 12.6 7.8 8.7 77 2.0 SW 24 32 13 17 1027.6 1027.7 0.2
20/05:00pm 13.2 9.1 8.7 74 2.2 SSW 20 32 11 17 1027.3 1027.4 0.2
20/04:30pm 14.4 9.5 8.4 67 3.0 SSW 24 33 13 18 1026.8 1026.9 0.2
20/04:00pm 15.1 10.4 9.2 68 3.0 SW 24 33 13 18 1026.6 1026.7 0.2
20/03:30pm 14.8 10.6 9.6 71 2.7 SSW 22 32 12 17 1026.3 1026.4 0.2
20/03:00pm 14.7 10.5 9.7 72 2.6 SSW 22 32 12 17 1026.2 1026.3 0.2
20/02:30pm 15.2 11.0 9.6 69 2.9 SW 22 30 12 16 1026.1 1026.2 0.2
20/02:00pm 14.9 10.6 9.5 70 2.8 SW 22 32 12 17 1026.1 1026.2 0.2
20/01:30pm 14.9 11.1 9.9 72 2.6 WSW 20 30 11 16 1026.0 1026.1 0.2
20/01:00pm 14.8 11.3 10.2 74 2.4 SW 19 24 10 13 1026.2 1026.3 0.2
20/12:30pm 15.6 12.7 11.0 74 2.5 W 17 22 9 12 1026.4 1026.5 0.0
20/12:00pm 13.8 10.8 9.3 74 2.3 WSW 15 19 8 10 1026.8 1026.9 0.0
20/11:30am 15.0 12.2 10.0 72 2.6 W 15 22 8 12 1026.8 1026.9 0.0
20/11:00am 14.7 12.9 10.7 77 2.1 W 11 20 6 11 1027.0 1027.1 0.0
20/10:30am 13.4 10.7 10.2 81 1.7 WSW 15 20 8 11 1027.1 1027.2 0.0
20/10:00am 13.5 11.1 11.4 87 1.1 W 15 19 8 10 1027.3 1027.4 0.0
20/09:30am 12.3 10.0 11.7 96 0.3 WNW 15 19 8 10 1027.4 1027.5 0.0
20/09:22am 11.8 9.8 11.6 99 0.1 WNW 13 19 7 10 1027.5 1027.6 0.0
20/09:00am 10.8 7.8 10.6 99 0.1 W 17 20 9 11 1027.5 1027.6 1.0
20/08:56am 10.6 7.5 10.3 98 0.2 W 17 20 9 11 1027.5 1027.6 0.8
20/08:30am 10.9 8.0 10.9 100 0.0 W 17 20 9 11 1027.1 1027.2 0.8
20/08:28am 10.6 7.6 10.6 100 0.0 WNW 17 20 9 11 1027.1 1027.2 0.8
20/08:00am 9.7 6.8 9.7 100 0.0 WNW 15 19 8 10 1027.0 1027.1 0.8
20/07:30am 9.4 6.8 9.4 100 0.0 W 13 17 7 9 1026.7 1026.8 0.8
20/07:11am 9.0 5.9 9.0 100 0.0 WNW 15 19 8 10 1026.6 1026.7 0.8
20/07:00am 9.1 5.3 9.1 100 0.0 WNW 19 22 10 12 1026.4 1026.5 0.6
20/06:30am 8.6 5.4 8.6 100 0.0 WNW 15 19 8 10 1026.2 1026.3 0.2
20/06:22am 8.6 5.1 8.6 100 0.0 WNW 17 19 9 10 1026.0 1026.1 0.2
20/06:01am 8.7 5.9 8.6 99 0.0 W 13 17 7 9 1025.8 1025.9 0.2
20/06:00am 8.7 5.9 8.6 99 0.0 W 13 17 7 9 1025.7 1025.8 0.2
20/05:30am 8.5 6.0 8.4 99 0.0 WNW 11 13 6 7 1025.3 1025.4 0.2
20/05:00am 8.5 5.7 8.4 99 0.0 WNW 13 17 7 9 1024.9 1025.0 0.2
20/04:30am 8.5 5.3 8.4 99 0.0 WNW 15 19 8 10 1024.6 1024.7 0.2
20/04:00am 8.5 4.9 8.2 98 0.1 WNW 17 22 9 12 1024.4 1024.5 0.2
20/03:30am 8.3 5.0 8.2 99 0.0 WNW 15 20 8 11 1024.3 1024.4 0.2
20/03:00am 7.8 5.6 7.7 99 0.0 W 9 13 5 7 1024.3 1024.4 0.2
20/02:30am 7.2 4.0 6.9 98 0.1 WNW 13 15 7 8 1024.2 1024.3 0.2
20/02:00am 7.7 3.9 7.4 98 0.1 W 17 20 9 11 1024.3 1024.4 0.2
20/01:30am 7.5 4.3 6.9 96 0.3 WNW 13 19 7 10 1024.4 1024.5 0.2
20/01:00am 8.6 5.2 7.8 95 0.4 WNW 15 19 8 10 1024.6 1024.7 0.2
20/12:30am 8.5 4.3 8.1 97 0.2 W 20 26 11 14 1024.6 1024.7 0.2
20/12:00am 8.1 3.7 7.5 96 0.3 WNW 20 28 11 15 1024.4 1024.5 0.2
 
Date/Time
EST
Temp
°C
App
Temp
°C
Dew
Point
Rel
Hum
%
Delta-T
°C
Wind Press
QNH
hPa
Press
MSL
hPa
Rain
since 9 am
mm
Dir
 
Spd
km/h
Gust
km/h
Spd
kts
Gust
kts
19/11:30pm 8.7 4.3 7.6 93 0.5 W 20 28 11 15 1024.3 1024.4 0.2
19/11:00pm 8.9 4.7 8.1 95 0.4 W 20 24 11 13 1024.6 1024.7 0.2
19/10:30pm 9.1 4.8 7.9 92 0.6 W 20 28 11 15 1024.6 1024.7 0.2
19/10:00pm 8.6 4.4 7.4 92 0.6 W 19 24 10 13 1024.5 1024.6 0.2
19/09:30pm 8.7 3.9 7.2 90 0.7 W 22 28 12 15 1024.5 1024.6 0.2
19/09:00pm 8.8 4.3 6.9 88 0.9 W 20 26 11 14 1024.6 1024.7 0.2
19/08:30pm 9.0 4.5 7.1 88 0.9 W 20 26 11 14 1024.4 1024.5 0.2
19/08:00pm 9.1 4.6 6.9 86 1.0 W 20 24 11 13 1024.1 1024.2 0.2
19/07:30pm 9.2 4.8 6.6 84 1.2 W 19 22 10 12 1023.9 1024.0 0.2
19/07:00pm 9.6 5.1 6.0 78 1.7 W 19 24 10 13 1023.7 1023.8 0.2
19/06:30pm 10.0 5.5 6.2 77 1.8 W 19 22 10 12 1023.5 1023.6 0.2
19/06:00pm 10.9 6.3 6.3 73 2.1 W 20 26 11 14 1023.2 1023.3 0.2
19/05:30pm 12.2 5.2 6.0 66 2.9 WSW 32 43 17 23 1022.9 1023.0 0.2
19/05:00pm 12.3 6.3 7.2 71 2.5 WSW 28 35 15 19 1022.7 1022.8 0.2
19/04:30pm 12.5 6.4 6.8 68 2.7 WSW 28 43 15 23 1022.6 1022.7 0.2
19/04:00pm 13.4 7.8 7.2 66 3.0 W 26 37 14 20 1022.4 1022.5 0.2
19/03:30pm 13.4 6.2 7.6 68 2.9 WSW 35 44 19 24 1022.3 1022.4 0.2
19/03:00pm 14.8 9.5 8.5 66 3.2 WSW 26 39 14 21 1021.9 1021.9 0.2
19/02:30pm 14.4 8.6 8.1 66 3.2 SW 28 35 15 19 1022.1 1022.1 0.2
19/02:00pm 14.0 9.4 8.2 68 2.9 W 22 28 12 15 1022.2 1022.3 0.2
19/01:30pm 13.3 8.0 8.4 72 2.4 W 26 33 14 18 1022.5 1022.6 0.2
19/01:00pm 13.9 9.9 10.5 80 1.8 WNW 22 32 12 17 1022.7 1022.8 0.2
19/12:30pm 12.4 8.0 10.5 88 1.0 WNW 24 32 13 17 1022.9 1023.0 0.2
19/12:00pm 13.4 9.7 11.6 89 1.0 WNW 22 32 12 17 1023.0 1023.1 0.2
19/11:30am 11.4 8.0 11.1 98 0.2 WNW 20 28 11 15 1023.3 1023.4 0.2
19/11:26am 11.0 7.0 10.5 97 0.3 W 22 28 12 15 1023.3 1023.4 0.2
19/11:06am 11.3 6.8 9.9 91 0.7 W 24 32 13 17 1023.4 1023.5 0.0
19/11:00am 11.7 7.8 9.6 87 1.1 WNW 20 32 11 17 1023.2 1023.3 0.0
19/10:30am 12.4 6.2 9.2 81 1.6 WNW 32 39 17 21 1023.3 1023.4 0.0
19/10:00am 12.1 6.3 9.3 83 1.4 W 30 39 16 21 1023.5 1023.6 0.0
19/09:30am 11.4 5.6 9.5 88 1.0 WNW 30 39 16 21 1023.6 1023.7 0.0
19/09:00am 10.7 5.6 9.3 91 0.7 WNW 26 35 14 19 1023.7 1023.8 1.2
19/08:30am 10.1 5.1 8.2 88 0.9 W 24 35 13 19 1023.6 1023.7 1.2
19/08:00am 9.2 4.2 8.0 92 0.6 W 24 33 13 18 1023.5 1023.6 1.2
19/07:30am 9.1 4.1 7.9 92 0.6 WNW 24 35 13 19 1023.2 1023.3 1.2
19/07:00am 7.8 2.9 7.1 95 0.3 W 22 32 12 17 1023.2 1023.3 1.2
19/06:30am 7.2 2.3 6.8 97 0.2 W 22 28 12 15 1023.0 1023.1 1.2
19/06:00am 7.0 3.4 6.6 97 0.2 W 15 19 8 10 1022.8 1022.9 1.2
19/05:30am 6.6 2.2 6.5 99 0.0 W 19 22 10 12 1022.6 1022.7 1.2
19/05:00am 6.5 2.4 6.2 98 0.1 W 17 24 9 13 1022.6 1022.7 1.2
19/04:30am 6.6 1.5 5.9 95 0.3 WNW 22 30 12 16 1022.3 1022.4 1.2
19/04:00am 6.9 2.4 6.3 96 0.3 WNW 19 22 10 12 1022.3 1022.4 1.2
19/03:30am 6.8 3.4 6.1 95 0.3 W 13 20 7 11 1022.5 1022.6 1.0
19/03:00am 6.5 1.8 5.3 92 0.5 WNW 19 24 10 13 1022.2 1022.3 1.0
19/02:30am 6.8 2.2 5.4 91 0.6 WNW 19 24 10 13 1022.4 1022.5 1.0
19/02:00am 7.4 2.2 5.5 88 0.8 W 22 28 12 15 1022.7 1022.8 1.0
19/01:30am 7.5 2.7 5.6 88 0.9 W 20 26 11 14 1022.8 1022.9 1.0
19/01:00am 6.6 1.7 5.2 91 0.6 W 20 24 11 13 1022.9 1023.0 1.0
19/12:30am 6.9 2.3 5.4 90 0.7 WNW 19 24 10 13 1023.2 1023.3 1.0
19/12:00am 7.6 2.7 5.2 85 1.1 WNW 20 26 11 14 1023.3 1023.4 1.0
 
Date/Time
EST
Temp
°C
App
Temp
°C
Dew
Point
Rel
Hum
%
Delta-T
°C
Wind Press
QNH
hPa
Press
MSL
hPa
Rain
since 9 am
mm
Dir
 
Spd
km/h
Gust
km/h
Spd
kts
Gust
kts
18/11:30pm 8.3 3.1 5.4 82 1.3 WNW 22 30 12 16 1023.5 1023.6 1.0
18/11:00pm 8.2 3.6 5.5 83 1.2 WNW 19 26 10 14 1023.6 1023.7 1.0
18/10:30pm 8.1 3.4 5.9 86 1.0 W 20 28 11 15 1023.5 1023.6 1.0
18/10:00pm 7.9 3.1 5.7 86 1.0 WNW 20 28 11 15 1023.5 1023.6 1.0
18/09:30pm 8.1 3.6 5.9 86 1.0 W 19 24 10 13 1023.6 1023.7 1.0
18/09:00pm 7.6 2.8 5.7 88 0.9 W 20 26 11 14 1023.6 1023.7 1.0
18/08:30pm 7.8 3.1 6.1 89 0.8 W 20 28 11 15 1023.4 1023.5 1.0
18/08:00pm 8.4 4.0 6.4 87 0.9 W 19 24 10 13 1023.3 1023.4 1.0
18/07:30pm 9.0 4.3 5.9 81 1.4 W 20 28 11 15 1023.0 1023.1 1.0
18/07:00pm 9.8 4.8 6.3 79 1.6 W 22 28 12 15 1022.8 1022.9 1.0
18/06:30pm 9.7 4.3 6.4 80 1.5 W 24 32 13 17 1022.7 1022.8 1.0
18/06:00pm 10.2 4.1 6.5 78 1.7 WSW 28 33 15 18 1022.3 1022.4 1.0
18/05:30pm 11.0 5.4 7.1 77 1.9 WSW 26 33 14 18 1021.9 1021.9 1.0
18/05:00pm 10.7 5.7 8.1 84 1.3 SW 24 30 13 16 1021.6 1021.6 1.0
18/04:30pm 12.1 6.4 6.6 69 2.6 WSW 26 35 14 19 1021.3 1021.3 1.0
18/04:00pm 11.8 7.0 7.5 75 2.1 SSW 22 32 12 17 1021.1 1021.1 1.0
18/03:30pm 11.3 5.2 6.4 72 2.3 SSW 28 41 15 22 1021.0 1021.0 1.0
18/03:00pm 13.2 8.9 7.9 70 2.6 W 20 30 11 16 1020.8 1020.8 1.0
18/02:30pm 11.0 5.2 8.0 82 1.5 WSW 28 33 15 18 1020.9 1020.9 1.0
18/02:00pm 12.8 7.1 6.8 67 2.9 SW 26 32 14 17 1020.7 1020.7 0.6

Other Formats:

Comma delimited format used in spreadsheet applications
http://www.bom.gov.au/fwo/IDV60801/IDV60801.94891.axf

JavaScript Object Notation format (JSON) in row-major order
http://www.bom.gov.au/fwo/IDV60801/IDV60801.94891.json